sensor_id;sensor_type;location;lat;lon;timestamp;P1;P2;P0
26185;PMS7003;20067;48.764;9.176;2023-09-18T00:00:22;9.75;9.75;6.00
26185;PMS7003;20067;48.764;9.176;2023-09-18T00:02:47;9.75;9.00;5.75
26185;PMS7003;20067;48.764;9.176;2023-09-18T00:05:13;9.50;9.50;6.00
26185;PMS7003;20067;48.764;9.176;2023-09-18T00:07:44;9.50;9.00;4.25
26185;PMS7003;20067;48.764;9.176;2023-09-18T00:10:12;11.75;9.75;4.25
26185;PMS7003;20067;48.764;9.176;2023-09-18T00:12:38;11.25;9.50;4.50
26185;PMS7003;20067;48.764;9.176;2023-09-18T00:15:05;9.25;9.00;4.00
26185;PMS7003;20067;48.764;9.176;2023-09-18T00:17:34;10.75;10.25;5.25
26185;PMS7003;20067;48.764;9.176;2023-09-18T00:20:01;9.50;9.00;4.00
26185;PMS7003;20067;48.764;9.176;2023-09-18T00:22:28;10.25;9.75;4.75
26185;PMS7003;20067;48.764;9.176;2023-09-18T00:24:54;10.00;10.00;5.00
26185;PMS7003;20067;48.764;9.176;2023-09-18T00:27:19;11.00;8.50;4.00
26185;PMS7003;20067;48.764;9.176;2023-09-18T00:29:45;10.75;10.00;6.00
26185;PMS7003;20067;48.764;9.176;2023-09-18T00:32:11;8.50;8.50;3.75
26185;PMS7003;20067;48.764;9.176;2023-09-18T00:34:36;9.00;9.00;5.00
26185;PMS7003;20067;48.764;9.176;2023-09-18T00:37:02;9.75;9.75;5.00
26185;PMS7003;20067;48.764;9.176;2023-09-18T00:39:28;10.50;9.75;4.75
26185;PMS7003;20067;48.764;9.176;2023-09-18T00:41:53;9.75;9.75;5.75
26185;PMS7003;20067;48.764;9.176;2023-09-18T00:44:22;10.00;9.25;5.50
26185;PMS7003;20067;48.764;9.176;2023-09-18T00:46:53;12.50;12.00;7.00
26185;PMS7003;20067;48.764;9.176;2023-09-18T00:49:22;11.50;11.50;4.00
26185;PMS7003;20067;48.764;9.176;2023-09-18T00:51:49;9.75;9.75;4.50
26185;PMS7003;20067;48.764;9.176;2023-09-18T00:54:16;12.00;11.00;4.00
26185;PMS7003;20067;48.764;9.176;2023-09-18T00:56:44;10.50;10.50;6.00
26185;PMS7003;20067;48.764;9.176;2023-09-18T00:59:13;12.00;12.00;6.00
26185;PMS7003;20067;48.764;9.176;2023-09-18T01:01:40;12.75;12.75;6.00
26185;PMS7003;20067;48.764;9.176;2023-09-18T01:04:07;11.50;9.00;5.75
26185;PMS7003;20067;48.764;9.176;2023-09-18T01:06:32;9.75;9.75;5.50
26185;PMS7003;20067;48.764;9.176;2023-09-18T01:08:58;11.00;11.00;6.50
26185;PMS7003;20067;48.764;9.176;2023-09-18T01:16:50;11.00;10.25;6.25
26185;PMS7003;20067;48.764;9.176;2023-09-18T01:22:06;11.75;10.00;6.50
26185;PMS7003;20067;48.764;9.176;2023-09-18T01:24:36;10.00;10.00;5.00
26185;PMS7003;20067;48.764;9.176;2023-09-18T01:27:03;11.25;9.00;4.50
26185;PMS7003;20067;48.764;9.176;2023-09-18T01:29:30;9.00;9.00;6.00
26185;PMS7003;20067;48.764;9.176;2023-09-18T01:31:56;9.50;8.25;5.00
26185;PMS7003;20067;48.764;9.176;2023-09-18T01:34:27;9.00;8.25;4.50
26185;PMS7003;20067;48.764;9.176;2023-09-18T01:36:57;12.25;11.25;6.25
26185;PMS7003;20067;48.764;9.176;2023-09-18T01:39:22;12.25;12.00;7.00
26185;PMS7003;20067;48.764;9.176;2023-09-18T01:41:52;9.50;8.75;4.50
26185;PMS7003;20067;48.764;9.176;2023-09-18T01:44:18;10.75;9.00;4.50
26185;PMS7003;20067;48.764;9.176;2023-09-18T01:46:44;9.00;9.00;5.00
26185;PMS7003;20067;48.764;9.176;2023-09-18T01:49:10;12.00;11.00;6.00
26185;PMS7003;20067;48.764;9.176;2023-09-18T01:51:35;10.75;10.25;4.75
26185;PMS7003;20067;48.764;9.176;2023-09-18T01:54:01;9.50;8.75;2.25
26185;PMS7003;20067;48.764;9.176;2023-09-18T01:56:27;10.25;10.25;6.75
26185;PMS7003;20067;48.764;9.176;2023-09-18T01:58:52;11.25;8.50;4.25
26185;PMS7003;20067;48.764;9.176;2023-09-18T02:01:18;9.50;8.75;4.00
26185;PMS7003;20067;48.764;9.176;2023-09-18T02:03:43;9.00;9.00;4.00
26185;PMS7003;20067;48.764;9.176;2023-09-18T02:06:10;9.75;9.00;4.00
26185;PMS7003;20067;48.764;9.176;2023-09-18T02:08:36;8.00;7.00;3.50
26185;PMS7003;20067;48.764;9.176;2023-09-18T02:11:02;12.50;10.25;4.00
26185;PMS7003;20067;48.764;9.176;2023-09-18T02:13:28;8.00;8.00;3.00
26185;PMS7003;20067;48.764;9.176;2023-09-18T02:15:54;12.25;8.50;3.00
26185;PMS7003;20067;48.764;9.176;2023-09-18T02:18:20;10.00;8.00;3.50
26185;PMS7003;20067;48.764;9.176;2023-09-18T02:20:46;9.00;8.25;3.75
26185;PMS7003;20067;48.764;9.176;2023-09-18T02:23:14;8.00;8.00;3.00
26185;PMS7003;20067;48.764;9.176;2023-09-18T02:25:43;11.00;8.00;2.50
26185;PMS7003;20067;48.764;9.176;2023-09-18T02:28:09;8.50;7.00;2.25
26185;PMS7003;20067;48.764;9.176;2023-09-18T02:30:35;7.25;7.25;3.00
26185;PMS7003;20067;48.764;9.176;2023-09-18T02:33:00;9.50;8.25;3.00
26185;PMS7003;20067;48.764;9.176;2023-09-18T02:35:28;9.75;7.50;3.00
26185;PMS7003;20067;48.764;9.176;2023-09-18T02:37:54;8.50;8.00;4.00
26185;PMS7003;20067;48.764;9.176;2023-09-18T02:40:20;7.25;7.25;3.75
26185;PMS7003;20067;48.764;9.176;2023-09-18T02:42:45;8.00;8.00;3.00
26185;PMS7003;20067;48.764;9.176;2023-09-18T02:45:11;6.50;6.00;2.50
26185;PMS7003;20067;48.764;9.176;2023-09-18T02:47:37;7.00;7.00;2.00
26185;PMS7003;20067;48.764;9.176;2023-09-18T02:50:06;7.50;6.25;2.25
26185;PMS7003;20067;48.764;9.176;2023-09-18T02:52:32;9.75;7.00;2.00
26185;PMS7003;20067;48.764;9.176;2023-09-18T02:54:57;8.75;7.00;3.00
26185;PMS7003;20067;48.764;9.176;2023-09-18T02:57:23;8.75;7.00;3.00
26185;PMS7003;20067;48.764;9.176;2023-09-18T02:59:49;7.00;7.00;2.25
26185;PMS7003;20067;48.764;9.176;2023-09-18T03:02:14;8.00;7.50;2.25
26185;PMS7003;20067;48.764;9.176;2023-09-18T03:04:40;10.25;7.75;3.00
26185;PMS7003;20067;48.764;9.176;2023-09-18T03:07:06;7.00;7.00;1.75
26185;PMS7003;20067;48.764;9.176;2023-09-18T03:09:31;8.25;8.00;2.00
26185;PMS7003;20067;48.764;9.176;2023-09-18T03:11:57;10.50;7.75;2.00
26185;PMS7003;20067;48.764;9.176;2023-09-18T03:14:23;8.00;7.00;3.00
26185;PMS7003;20067;48.764;9.176;2023-09-18T03:16:48;6.75;6.25;2.00
26185;PMS7003;20067;48.764;9.176;2023-09-18T03:19:15;9.50;7.25;3.00
26185;PMS7003;20067;48.764;9.176;2023-09-18T03:21:41;7.25;6.00;2.00
26185;PMS7003;20067;48.764;9.176;2023-09-18T03:24:06;7.00;7.00;3.00
26185;PMS7003;20067;48.764;9.176;2023-09-18T03:26:32;11.75;8.00;3.00
26185;PMS7003;20067;48.764;9.176;2023-09-18T03:28:58;9.00;6.50;2.75
26185;PMS7003;20067;48.764;9.176;2023-09-18T03:31:23;8.00;6.00;2.00
26185;PMS7003;20067;48.764;9.176;2023-09-18T03:33:49;6.25;5.75;2.00
26185;PMS7003;20067;48.764;9.176;2023-09-18T03:36:15;7.75;6.00;2.25
26185;PMS7003;20067;48.764;9.176;2023-09-18T03:38:41;9.50;7.00;3.00
26185;PMS7003;20067;48.764;9.176;2023-09-18T03:41:07;6.50;6.50;3.00
26185;PMS7003;20067;48.764;9.176;2023-09-18T03:43:32;7.00;6.75;2.00
26185;PMS7003;20067;48.764;9.176;2023-09-18T03:46:04;8.00;7.00;3.00
26185;PMS7003;20067;48.764;9.176;2023-09-18T03:48:30;6.75;6.75;3.00
26185;PMS7003;20067;48.764;9.176;2023-09-18T03:51:01;7.25;7.25;3.00
26185;PMS7003;20067;48.764;9.176;2023-09-18T03:53:31;7.25;6.00;2.00
26185;PMS7003;20067;48.764;9.176;2023-09-18T03:55:58;8.00;8.00;3.75
26185;PMS7003;20067;48.764;9.176;2023-09-18T03:58:24;8.00;8.00;3.00
26185;PMS7003;20067;48.764;9.176;2023-09-18T04:00:49;10.00;9.00;4.00
26185;PMS7003;20067;48.764;9.176;2023-09-18T04:03:16;7.00;7.00;2.25
26185;PMS7003;20067;48.764;9.176;2023-09-18T04:05:42;10.00;7.00;3.00
26185;PMS7003;20067;48.764;9.176;2023-09-18T04:08:07;7.25;7.25;3.50
26185;PMS7003;20067;48.764;9.176;2023-09-18T04:10:34;7.50;7.50;2.00
26185;PMS7003;20067;48.764;9.176;2023-09-18T04:13:00;8.00;7.25;2.25
26185;PMS7003;20067;48.764;9.176;2023-09-18T04:15:25;9.00;7.50;3.00
26185;PMS7003;20067;48.764;9.176;2023-09-18T04:17:52;8.50;8.00;3.00
26185;PMS7003;20067;48.764;9.176;2023-09-18T04:20:18;8.75;8.75;3.00
26185;PMS7003;20067;48.764;9.176;2023-09-18T04:22:44;11.25;8.25;4.00
26185;PMS7003;20067;48.764;9.176;2023-09-18T04:25:14;10.00;8.75;4.50
26185;PMS7003;20067;48.764;9.176;2023-09-18T04:27:41;8.00;8.00;3.00
26185;PMS7003;20067;48.764;9.176;2023-09-18T04:30:07;7.50;7.50;3.00
26185;PMS7003;20067;48.764;9.176;2023-09-18T04:32:35;9.00;9.00;4.00
26185;PMS7003;20067;48.764;9.176;2023-09-18T04:35:05;8.75;7.50;3.00
26185;PMS7003;20067;48.764;9.176;2023-09-18T04:37:31;8.25;7.25;2.75
26185;PMS7003;20067;48.764;9.176;2023-09-18T04:40:00;9.50;8.75;3.75
26185;PMS7003;20067;48.764;9.176;2023-09-18T04:42:26;8.00;7.00;2.00
26185;PMS7003;20067;48.764;9.176;2023-09-18T04:44:52;8.50;8.00;2.75
26185;PMS7003;20067;48.764;9.176;2023-09-18T04:47:17;9.00;8.00;3.00
26185;PMS7003;20067;48.764;9.176;2023-09-18T04:49:43;11.25;8.75;3.00
26185;PMS7003;20067;48.764;9.176;2023-09-18T04:52:12;7.50;7.50;3.00
26185;PMS7003;20067;48.764;9.176;2023-09-18T04:54:38;8.00;8.00;3.75
26185;PMS7003;20067;48.764;9.176;2023-09-18T04:57:04;9.75;7.50;2.00
26185;PMS7003;20067;48.764;9.176;2023-09-18T04:59:30;8.00;7.00;2.00
26185;PMS7003;20067;48.764;9.176;2023-09-18T05:01:59;10.00;10.00;2.75
26185;PMS7003;20067;48.764;9.176;2023-09-18T05:04:25;10.75;9.25;3.25
26185;PMS7003;20067;48.764;9.176;2023-09-18T05:06:50;8.75;8.75;4.00
26185;PMS7003;20067;48.764;9.176;2023-09-18T05:09:16;9.75;9.00;4.00
26185;PMS7003;20067;48.764;9.176;2023-09-18T05:11:42;9.00;7.75;3.00
26185;PMS7003;20067;48.764;9.176;2023-09-18T05:14:08;6.00;6.00;2.50
26185;PMS7003;20067;48.764;9.176;2023-09-18T05:16:33;8.50;8.50;4.00
26185;PMS7003;20067;48.764;9.176;2023-09-18T05:18:59;9.00;9.00;4.00
26185;PMS7003;20067;48.764;9.176;2023-09-18T05:21:25;8.50;8.25;3.50
26185;PMS7003;20067;48.764;9.176;2023-09-18T05:23:51;9.00;9.00;2.00
26185;PMS7003;20067;48.764;9.176;2023-09-18T05:26:18;8.00;7.50;2.50
26185;PMS7003;20067;48.764;9.176;2023-09-18T05:28:44;8.00;8.00;2.00
26185;PMS7003;20067;48.764;9.176;2023-09-18T05:31:09;8.25;7.50;1.50
26185;PMS7003;20067;48.764;9.176;2023-09-18T05:33:35;6.75;6.75;1.25
26185;PMS7003;20067;48.764;9.176;2023-09-18T05:36:01;10.00;8.00;2.00
26185;PMS7003;20067;48.764;9.176;2023-09-18T05:38:26;12.00;11.00;2.00
26185;PMS7003;20067;48.764;9.176;2023-09-18T05:40:52;10.00;9.25;2.00
26185;PMS7003;20067;48.764;9.176;2023-09-18T05:43:17;10.00;10.00;2.00
26185;PMS7003;20067;48.764;9.176;2023-09-18T05:45:43;21.75;20.00;2.25
26185;PMS7003;20067;48.764;9.176;2023-09-18T05:48:08;15.00;12.75;1.00
26185;PMS7003;20067;48.764;9.176;2023-09-18T05:50:34;11.50;11.00;2.00
26185;PMS7003;20067;48.764;9.176;2023-09-18T05:53:01;13.50;11.00;2.00
26185;PMS7003;20067;48.764;9.176;2023-09-18T05:55:31;10.00;10.00;2.50
26185;PMS7003;20067;48.764;9.176;2023-09-18T05:57:58;17.25;16.75;3.00
26185;PMS7003;20067;48.764;9.176;2023-09-18T06:00:24;9.00;9.00;2.00
26185;PMS7003;20067;48.764;9.176;2023-09-18T06:02:51;11.50;11.00;2.00
26185;PMS7003;20067;48.764;9.176;2023-09-18T06:05:16;9.25;7.50;2.00
26185;PMS7003;20067;48.764;9.176;2023-09-18T06:07:46;9.50;9.00;4.25
26185;PMS7003;20067;48.764;9.176;2023-09-18T06:10:12;7.50;7.50;3.00
26185;PMS7003;20067;48.764;9.176;2023-09-18T06:12:39;7.00;6.75;3.00
26185;PMS7003;20067;48.764;9.176;2023-09-18T06:15:06;7.25;7.00;4.00
26185;PMS7003;20067;48.764;9.176;2023-09-18T06:17:35;9.00;8.00;4.00
26185;PMS7003;20067;48.764;9.176;2023-09-18T06:20:04;9.25;8.00;3.00
26185;PMS7003;20067;48.764;9.176;2023-09-18T06:22:34;7.25;6.75;2.75
26185;PMS7003;20067;48.764;9.176;2023-09-18T06:24:59;8.75;8.75;4.00
26185;PMS7003;20067;48.764;9.176;2023-09-18T06:27:25;7.25;6.25;2.50
26185;PMS7003;20067;48.764;9.176;2023-09-18T06:29:51;7.00;6.50;3.00
26185;PMS7003;20067;48.764;9.176;2023-09-18T06:32:16;9.75;9.00;4.00
26185;PMS7003;20067;48.764;9.176;2023-09-18T06:34:42;11.50;8.25;4.00
26185;PMS7003;20067;48.764;9.176;2023-09-18T06:37:09;9.25;9.00;3.00
26185;PMS7003;20067;48.764;9.176;2023-09-18T06:39:37;8.00;8.00;2.00
26185;PMS7003;20067;48.764;9.176;2023-09-18T06:42:03;8.00;7.00;2.25
26185;PMS7003;20067;48.764;9.176;2023-09-18T06:44:31;8.50;7.00;1.50
26185;PMS7003;20067;48.764;9.176;2023-09-18T06:46:56;10.25;9.75;2.00
26185;PMS7003;20067;48.764;9.176;2023-09-18T06:49:22;9.25;8.25;2.00
26185;PMS7003;20067;48.764;9.176;2023-09-18T06:51:49;11.00;8.00;2.25
26185;PMS7003;20067;48.764;9.176;2023-09-18T06:54:14;10.25;9.75;2.25
26185;PMS7003;20067;48.764;9.176;2023-09-18T06:56:40;11.50;11.50;3.00
26185;PMS7003;20067;48.764;9.176;2023-09-18T06:59:06;7.00;7.00;1.00
26185;PMS7003;20067;48.764;9.176;2023-09-18T07:01:32;9.00;6.75;1.25
26185;PMS7003;20067;48.764;9.176;2023-09-18T07:03:58;12.00;9.50;2.00
26185;PMS7003;20067;48.764;9.176;2023-09-18T07:06:25;10.00;10.00;2.00
26185;PMS7003;20067;48.764;9.176;2023-09-18T07:08:50;9.00;7.50;1.25
26185;PMS7003;20067;48.764;9.176;2023-09-18T07:11:17;9.50;8.00;1.50
26185;PMS7003;20067;48.764;9.176;2023-09-18T07:13:43;7.50;7.50;1.00
26185;PMS7003;20067;48.764;9.176;2023-09-18T07:16:09;10.50;9.75;2.00
26185;PMS7003;20067;48.764;9.176;2023-09-18T07:18:35;8.75;8.50;1.00
26185;PMS7003;20067;48.764;9.176;2023-09-18T07:21:01;10.25;10.00;1.75
26185;PMS7003;20067;48.764;9.176;2023-09-18T07:23:27;9.00;7.00;1.50
26185;PMS7003;20067;48.764;9.176;2023-09-18T07:25:53;7.50;7.50;1.00
26185;PMS7003;20067;48.764;9.176;2023-09-18T07:28:19;7.25;7.00;1.00
26185;PMS7003;20067;48.764;9.176;2023-09-18T07:30:45;7.00;6.50;1.00
26185;PMS7003;20067;48.764;9.176;2023-09-18T07:33:11;9.00;7.50;1.00
26185;PMS7003;20067;48.764;9.176;2023-09-18T07:35:40;6.25;6.25;1.00
26185;PMS7003;20067;48.764;9.176;2023-09-18T07:38:06;11.25;10.00;1.00
26185;PMS7003;20067;48.764;9.176;2023-09-18T07:40:33;7.75;7.00;0.50
26185;PMS7003;20067;48.764;9.176;2023-09-18T07:42:58;11.25;10.00;2.25
26185;PMS7003;20067;48.764;9.176;2023-09-18T07:45:26;5.25;5.25;1.50
26185;PMS7003;20067;48.764;9.176;2023-09-18T07:47:52;6.00;6.00;2.00
26185;PMS7003;20067;48.764;9.176;2023-09-18T07:50:17;6.00;6.00;1.00
26185;PMS7003;20067;48.764;9.176;2023-09-18T07:52:43;10.50;9.25;3.00
26185;PMS7003;20067;48.764;9.176;2023-09-18T07:55:09;9.00;8.50;2.00
26185;PMS7003;20067;48.764;9.176;2023-09-18T07:57:34;7.75;6.50;1.00
26185;PMS7003;20067;48.764;9.176;2023-09-18T08:00:03;9.00;8.00;0.75
26185;PMS7003;20067;48.764;9.176;2023-09-18T08:02:33;7.00;7.00;0.00
26185;PMS7003;20067;48.764;9.176;2023-09-18T08:05:00;11.00;11.00;0.00
26185;PMS7003;20067;48.764;9.176;2023-09-18T08:07:26;7.00;5.75;1.00
26185;PMS7003;20067;48.764;9.176;2023-09-18T08:09:53;6.00;4.00;1.00
26185;PMS7003;20067;48.764;9.176;2023-09-18T08:12:18;4.00;4.00;1.00
26185;PMS7003;20067;48.764;9.176;2023-09-18T08:14:44;4.00;3.00;1.00
26185;PMS7003;20067;48.764;9.176;2023-09-18T08:17:10;4.00;3.75;1.00
26185;PMS7003;20067;48.764;9.176;2023-09-18T08:19:35;3.00;3.00;1.00
26185;PMS7003;20067;48.764;9.176;2023-09-18T08:22:01;6.00;6.00;2.25
26185;PMS7003;20067;48.764;9.176;2023-09-18T08:24:28;4.00;3.25;1.00
26185;PMS7003;20067;48.764;9.176;2023-09-18T08:26:54;3.00;2.25;0.00
26185;PMS7003;20067;48.764;9.176;2023-09-18T08:29:21;3.00;3.00;1.00
26185;PMS7003;20067;48.764;9.176;2023-09-18T08:31:47;3.75;3.75;1.00
26185;PMS7003;20067;48.764;9.176;2023-09-18T08:34:13;4.00;4.00;1.00
26185;PMS7003;20067;48.764;9.176;2023-09-18T08:36:39;3.25;3.25;1.00
26185;PMS7003;20067;48.764;9.176;2023-09-18T08:39:05;4.00;4.00;1.00
26185;PMS7003;20067;48.764;9.176;2023-09-18T08:41:32;3.00;3.00;0.00
26185;PMS7003;20067;48.764;9.176;2023-09-18T08:44:00;3.25;2.75;0.25
26185;PMS7003;20067;48.764;9.176;2023-09-18T08:46:28;3.25;3.00;0.00
26185;PMS7003;20067;48.764;9.176;2023-09-18T08:48:59;4.00;3.75;1.00
26185;PMS7003;20067;48.764;9.176;2023-09-18T08:51:25;4.25;4.00;1.00
26185;PMS7003;20067;48.764;9.176;2023-09-18T08:53:53;4.00;3.25;1.00
26185;PMS7003;20067;48.764;9.176;2023-09-18T08:56:20;3.50;3.50;1.00
26185;PMS7003;20067;48.764;9.176;2023-09-18T08:58:47;3.25;3.25;1.00
26185;PMS7003;20067;48.764;9.176;2023-09-18T09:01:13;3.25;3.00;1.00
26185;PMS7003;20067;48.764;9.176;2023-09-18T09:03:42;4.00;3.00;1.00
26185;PMS7003;20067;48.764;9.176;2023-09-18T09:06:10;3.00;3.00;0.75
26185;PMS7003;20067;48.764;9.176;2023-09-18T09:08:37;3.00;3.00;0.50
26185;PMS7003;20067;48.764;9.176;2023-09-18T09:11:03;3.25;3.00;0.25
26185;PMS7003;20067;48.764;9.176;2023-09-18T09:13:29;4.00;4.00;1.00
26185;PMS7003;20067;48.764;9.176;2023-09-18T09:15:58;5.50;4.00;1.00
26185;PMS7003;20067;48.764;9.176;2023-09-18T09:18:26;3.00;3.00;0.00
26185;PMS7003;20067;48.764;9.176;2023-09-18T09:20:54;3.50;3.00;0.75
26185;PMS7003;20067;48.764;9.176;2023-09-18T09:23:23;5.00;3.00;1.00
26185;PMS7003;20067;48.764;9.176;2023-09-18T09:25:50;3.00;3.00;0.25
26185;PMS7003;20067;48.764;9.176;2023-09-18T09:28:16;4.00;4.00;0.00
26185;PMS7003;20067;48.764;9.176;2023-09-18T09:30:54;4.00;3.00;1.00
26185;PMS7003;20067;48.764;9.176;2023-09-18T09:33:28;4.00;3.00;1.00
26185;PMS7003;20067;48.764;9.176;2023-09-18T09:35:55;3.00;3.00;1.00
26185;PMS7003;20067;48.764;9.176;2023-09-18T09:38:22;4.00;4.00;1.00
26185;PMS7003;20067;48.764;9.176;2023-09-18T09:41:02;3.25;3.00;1.00
26185;PMS7003;20067;48.764;9.176;2023-09-18T09:43:34;3.50;3.50;1.00
26185;PMS7003;20067;48.764;9.176;2023-09-18T09:46:00;3.25;3.00;1.00
26185;PMS7003;20067;48.764;9.176;2023-09-18T09:48:27;6.50;3.00;0.75
26185;PMS7003;20067;48.764;9.176;2023-09-18T09:50:57;3.25;3.00;1.00
26185;PMS7003;20067;48.764;9.176;2023-09-18T09:53:45;3.75;3.75;1.00
26185;PMS7003;20067;48.764;9.176;2023-09-18T09:56:13;3.00;2.75;0.25
26185;PMS7003;20067;48.764;9.176;2023-09-18T09:58:40;3.00;3.00;0.75
26185;PMS7003;20067;48.764;9.176;2023-09-18T10:01:11;5.00;4.00;1.00
26185;PMS7003;20067;48.764;9.176;2023-09-18T10:03:42;7.75;7.75;4.25
26185;PMS7003;20067;48.764;9.176;2023-09-18T10:06:09;32.50;32.25;24.75
26185;PMS7003;20067;48.764;9.176;2023-09-18T10:08:39;29.75;29.00;22.50
26185;PMS7003;20067;48.764;9.176;2023-09-18T10:11:06;29.25;27.75;20.50
26185;PMS7003;20067;48.764;9.176;2023-09-18T10:16:19;10.50;10.50;6.75
26185;PMS7003;20067;48.764;9.176;2023-09-18T10:24:25;6.00;6.00;3.00
26185;PMS7003;20067;48.764;9.176;2023-09-18T10:29:21;6.00;3.75;1.00
26185;PMS7003;20067;48.764;9.176;2023-09-18T10:31:49;4.00;4.00;1.50
26185;PMS7003;20067;48.764;9.176;2023-09-18T10:34:19;4.50;4.50;2.00
26185;PMS7003;20067;48.764;9.176;2023-09-18T10:36:48;4.00;4.00;1.00
26185;PMS7003;20067;48.764;9.176;2023-09-18T10:39:16;6.00;6.00;2.00
26185;PMS7003;20067;48.764;9.176;2023-09-18T10:41:48;6.00;6.00;2.00
26185;PMS7003;20067;48.764;9.176;2023-09-18T10:44:16;6.00;6.00;2.00
26185;PMS7003;20067;48.764;9.176;2023-09-18T10:46:45;5.00;5.00;2.00
26185;PMS7003;20067;48.764;9.176;2023-09-18T10:49:11;4.25;4.25;1.75
26185;PMS7003;20067;48.764;9.176;2023-09-18T10:51:38;5.25;4.00;1.50
26185;PMS7003;20067;48.764;9.176;2023-09-18T10:54:10;7.25;7.25;3.25
26185;PMS7003;20067;48.764;9.176;2023-09-18T10:56:39;6.00;6.00;2.00
26185;PMS7003;20067;48.764;9.176;2023-09-18T10:59:07;4.00;4.00;1.25
26185;PMS7003;20067;48.764;9.176;2023-09-18T11:01:34;5.50;3.25;1.00
26185;PMS7003;20067;48.764;9.176;2023-09-18T11:04:03;6.25;4.75;1.75
26185;PMS7003;20067;48.764;9.176;2023-09-18T11:07:00;5.00;3.00;1.00
26185;PMS7003;20067;48.764;9.176;2023-09-18T11:09:19;6.00;4.00;1.75
26185;PMS7003;20067;48.764;9.176;2023-09-18T11:17:30;3.00;3.00;1.00
26185;PMS7003;20067;48.764;9.176;2023-09-18T11:22:47;6.00;6.00;1.00
26185;PMS7003;20067;48.764;9.176;2023-09-18T11:25:28;5.00;3.00;1.00
26185;PMS7003;20067;48.764;9.176;2023-09-18T11:27:59;4.00;4.00;1.50
26185;PMS7003;20067;48.764;9.176;2023-09-18T11:30:27;5.50;5.00;1.50
26185;PMS7003;20067;48.764;9.176;2023-09-18T11:32:54;5.00;5.00;1.00
26185;PMS7003;20067;48.764;9.176;2023-09-18T11:35:20;3.00;3.00;1.00
26185;PMS7003;20067;48.764;9.176;2023-09-18T11:37:47;5.00;3.00;0.25
26185;PMS7003;20067;48.764;9.176;2023-09-18T11:40:30;2.50;2.50;0.25
26185;PMS7003;20067;48.764;9.176;2023-09-18T11:43:22;6.00;4.00;1.00
26185;PMS7003;20067;48.764;9.176;2023-09-18T11:45:55;3.00;3.00;0.75
26185;PMS7003;20067;48.764;9.176;2023-09-18T11:48:24;3.00;3.00;1.00
26185;PMS7003;20067;48.764;9.176;2023-09-18T11:50:55;6.25;6.00;1.00
26185;PMS7003;20067;48.764;9.176;2023-09-18T11:53:23;3.00;3.00;0.50
26185;PMS7003;20067;48.764;9.176;2023-09-18T11:55:50;6.00;3.25;0.25
26185;PMS7003;20067;48.764;9.176;2023-09-18T11:58:16;3.00;3.00;1.00
26185;PMS7003;20067;48.764;9.176;2023-09-18T12:00:45;3.00;3.00;1.00
26185;PMS7003;20067;48.764;9.176;2023-09-18T12:03:20;4.25;3.00;0.25
26185;PMS7003;20067;48.764;9.176;2023-09-18T12:05:53;3.00;3.00;1.00
26185;PMS7003;20067;48.764;9.176;2023-09-18T12:08:22;3.25;3.25;0.75
26185;PMS7003;20067;48.764;9.176;2023-09-18T12:10:52;4.00;4.00;1.00
26185;PMS7003;20067;48.764;9.176;2023-09-18T12:13:20;3.00;3.00;1.00
26185;PMS7003;20067;48.764;9.176;2023-09-18T12:15:48;2.75;2.75;0.50
26185;PMS7003;20067;48.764;9.176;2023-09-18T12:18:14;3.00;3.00;0.50
26185;PMS7003;20067;48.764;9.176;2023-09-18T12:20:47;3.00;3.00;1.00
26185;PMS7003;20067;48.764;9.176;2023-09-18T12:23:14;4.00;4.00;1.00
26185;PMS7003;20067;48.764;9.176;2023-09-18T12:25:40;3.25;3.25;1.00
26185;PMS7003;20067;48.764;9.176;2023-09-18T12:28:09;4.00;3.25;1.00
26185;PMS7003;20067;48.764;9.176;2023-09-18T12:30:36;4.00;4.00;1.00
26185;PMS7003;20067;48.764;9.176;2023-09-18T12:33:02;3.25;3.25;1.00
26185;PMS7003;20067;48.764;9.176;2023-09-18T12:35:30;4.00;4.00;1.00
26185;PMS7003;20067;48.764;9.176;2023-09-18T12:37:57;6.00;4.00;1.00
26185;PMS7003;20067;48.764;9.176;2023-09-18T12:40:25;3.50;3.00;1.00
26185;PMS7003;20067;48.764;9.176;2023-09-18T12:42:58;5.25;4.00;1.50
26185;PMS7003;20067;48.764;9.176;2023-09-18T12:45:25;6.75;6.00;2.00
26185;PMS7003;20067;48.764;9.176;2023-09-18T12:47:53;6.00;4.00;1.75
26185;PMS7003;20067;48.764;9.176;2023-09-18T12:50:19;4.00;4.00;1.75
26185;PMS7003;20067;48.764;9.176;2023-09-18T12:52:45;6.00;4.00;1.25
26185;PMS7003;20067;48.764;9.176;2023-09-18T12:55:23;4.50;4.50;2.00
26185;PMS7003;20067;48.764;9.176;2023-09-18T12:57:51;5.00;5.00;1.75
26185;PMS7003;20067;48.764;9.176;2023-09-18T13:00:18;3.75;3.75;1.00
26185;PMS7003;20067;48.764;9.176;2023-09-18T13:02:51;4.50;4.50;1.50
26185;PMS7003;20067;48.764;9.176;2023-09-18T13:05:20;4.00;4.00;1.75
26185;PMS7003;20067;48.764;9.176;2023-09-18T13:07:50;5.00;4.50;2.00
26185;PMS7003;20067;48.764;9.176;2023-09-18T13:10:18;6.00;6.00;2.00
26185;PMS7003;20067;48.764;9.176;2023-09-18T13:12:51;6.25;6.25;2.25
26185;PMS7003;20067;48.764;9.176;2023-09-18T13:15:30;7.75;6.00;2.00
26185;PMS7003;20067;48.764;9.176;2023-09-18T13:18:00;3.00;3.00;1.00
26185;PMS7003;20067;48.764;9.176;2023-09-18T13:20:33;3.75;3.50;1.00
26185;PMS7003;20067;48.764;9.176;2023-09-18T13:22:59;3.00;3.00;1.00
26185;PMS7003;20067;48.764;9.176;2023-09-18T13:25:32;5.00;4.00;1.50
26185;PMS7003;20067;48.764;9.176;2023-09-18T13:28:03;4.50;4.50;2.00
26185;PMS7003;20067;48.764;9.176;2023-09-18T13:30:32;6.00;4.00;2.00
26185;PMS7003;20067;48.764;9.176;2023-09-18T13:33:04;5.00;5.00;2.00
26185;PMS7003;20067;48.764;9.176;2023-09-18T13:35:31;5.50;5.50;2.00
26185;PMS7003;20067;48.764;9.176;2023-09-18T13:39:24;4.75;4.75;2.00
26185;PMS7003;20067;48.764;9.176;2023-09-18T13:41:50;4.00;4.00;1.00
26185;PMS7003;20067;48.764;9.176;2023-09-18T13:44:16;5.00;5.00;2.00
26185;PMS7003;20067;48.764;9.176;2023-09-18T13:46:48;4.00;4.00;1.00
26185;PMS7003;20067;48.764;9.176;2023-09-18T13:49:13;3.50;3.00;1.00
26185;PMS7003;20067;48.764;9.176;2023-09-18T13:51:39;4.00;4.00;1.25
26185;PMS7003;20067;48.764;9.176;2023-09-18T13:54:05;3.75;3.00;1.00
26185;PMS7003;20067;48.764;9.176;2023-09-18T13:56:33;4.00;4.00;1.25
26185;PMS7003;20067;48.764;9.176;2023-09-18T13:58:58;4.75;4.50;2.00
26185;PMS7003;20067;48.764;9.176;2023-09-18T14:01:24;4.00;4.00;1.50
26185;PMS7003;20067;48.764;9.176;2023-09-18T14:03:51;4.00;4.00;1.25
26185;PMS7003;20067;48.764;9.176;2023-09-18T14:06:18;3.00;3.00;1.00
26185;PMS7003;20067;48.764;9.176;2023-09-18T14:08:44;3.75;3.75;1.00
26185;PMS7003;20067;48.764;9.176;2023-09-18T14:11:10;5.50;3.25;1.00
26185;PMS7003;20067;48.764;9.176;2023-09-18T14:13:36;3.75;3.75;1.00
26185;PMS7003;20067;48.764;9.176;2023-09-18T14:16:02;4.00;3.75;1.00
26185;PMS7003;20067;48.764;9.176;2023-09-18T14:18:28;4.00;4.00;1.00
26185;PMS7003;20067;48.764;9.176;2023-09-18T14:20:54;3.25;3.25;1.00
26185;PMS7003;20067;48.764;9.176;2023-09-18T14:23:20;5.00;4.00;1.25
26185;PMS7003;20067;48.764;9.176;2023-09-18T14:25:46;4.50;4.50;2.00
26185;PMS7003;20067;48.764;9.176;2023-09-18T14:28:12;5.00;4.00;1.75
26185;PMS7003;20067;48.764;9.176;2023-09-18T14:30:38;4.00;4.00;1.75
26185;PMS7003;20067;48.764;9.176;2023-09-18T14:33:04;5.25;5.25;2.00
26185;PMS7003;20067;48.764;9.176;2023-09-18T14:35:30;6.00;6.00;2.75
26185;PMS7003;20067;48.764;9.176;2023-09-18T14:37:55;7.25;7.00;4.00
26185;PMS7003;20067;48.764;9.176;2023-09-18T14:40:21;9.00;9.00;4.00
26185;PMS7003;20067;48.764;9.176;2023-09-18T14:42:47;9.75;9.75;7.00
26185;PMS7003;20067;48.764;9.176;2023-09-18T14:45:13;11.50;11.50;6.75
26185;PMS7003;20067;48.764;9.176;2023-09-18T14:47:39;11.50;11.50;7.75